This is the latest recevied weather packets stored in our database for station/object DC1MAK-13. If no packets are shown the sender has not sent any weather packets the latest 10 day(s).
| Time | Temp. | Humidity | Pressure | Rain* | Wind** | Luminosity | Snow |
|---|---|---|---|---|---|---|---|
| 1787671967 | 20° C | 90% | 985.1 hPa | - | - | - | - |
| 1787671667 | 20° C | 91% | 985.1 hPa | - | - | - | - |
| 1787671359 | 19.44° C | 89% | 985.2 hPa | - | - | - | - |
| 1787671056 | 20° C | 85% | 985.2 hPa | - | - | - | - |
| 1787670752 | 20° C | 84% | 985.2 hPa | - | - | - | - |
| 1787670147 | 20° C | 82% | 985.1 hPa | - | - | - | - |
| 1787669847 | 20° C | 81% | 985.1 hPa | - | - | - | - |
| 1787669538 | 20.56° C | 79% | 985 hPa | - | - | - | - |
| 1787669235 | 20.56° C | 78% | 985 hPa | - | - | - | - |
| 1787668932 | 20.56° C | 79% | 985 hPa | - | - | - | - |
| 1787668327 | 20° C | 80% | 985 hPa | - | - | - | - |
| 1787668027 | 20.56° C | 79% | 984.8 hPa | - | - | - | - |
| 1787667718 | 20.56° C | 78% | 984.8 hPa | - | - | - | - |
| 1787667414 | 20° C | 79% | 984.8 hPa | - | - | - | - |
| 1787667111 | 20° C | 80% | 984.9 hPa | - | - | - | - |
| 1787666507 | 20.56° C | 77% | 984.8 hPa | - | - | - | - |
| 1787666200 | 21.11° C | 74% | 984.8 hPa | - | - | - | - |
| 1787665897 | 21.11° C | 71% | 984.8 hPa | - | - | - | - |
| 1787665594 | 21.11° C | 71% | 984.9 hPa | - | - | - | - |
| 1787664687 | 21.11° C | 72% | 984.8 hPa | - | - | - | - |
| 1787664380 | 21.11° C | 70% | 984.8 hPa | - | - | - | - |
| 1787664076 | 21.67° C | 68% | 984.6 hPa | - | - | - | - |
| 1787663773 | 21.67° C | 67% | 984.7 hPa | - | - | - | - |
| 1787663167 | 21.11° C | 70% | 984.8 hPa | - | - | - | - |
| 1787662867 | 21.11° C | 70% | 984.8 hPa | - | - | - | - |
* Rain since midnight (hover to see other rain measurements)
** Current wind speed in m/s (hover to see current wind gust speed)